createdAt,value
2018-12-23T00:01:12.099Z,966.8
2018-12-23T00:11:15.519Z,966.8
2018-12-23T00:21:18.912Z,966.9
2018-12-23T00:31:22.348Z,967
2018-12-23T00:41:25.753Z,967
2018-12-23T00:51:29.144Z,967.1
2018-12-23T01:01:32.571Z,966.9
2018-12-23T01:11:36.005Z,967.1
2018-12-23T01:21:39.407Z,967.2
2018-12-23T01:31:42.833Z,974.9
2018-12-23T01:41:46.234Z,974.7
2018-12-23T01:51:49.646Z,974.8
2018-12-23T02:01:53.068Z,974.5
2018-12-23T02:11:56.484Z,974.7
2018-12-23T02:21:59.905Z,974.5
2018-12-23T02:32:03.317Z,974.6
2018-12-23T02:42:06.746Z,974.3
2018-12-23T02:52:10.132Z,974.1
2018-12-23T03:02:13.544Z,974.3
2018-12-23T03:12:16.953Z,974.4
2018-12-23T03:22:20.380Z,974.4
2018-12-23T03:32:23.840Z,967.5
2018-12-23T03:42:27.237Z,974.7
2018-12-23T03:52:30.661Z,967.6
2018-12-23T04:02:34.060Z,974.9
2018-12-23T04:12:37.479Z,967.8
2018-12-23T04:22:40.862Z,975
2018-12-23T04:32:44.285Z,974.9
2018-12-23T04:42:47.726Z,974.6
2018-12-23T04:52:51.178Z,974.4
2018-12-23T05:02:54.594Z,974.5
2018-12-23T05:12:58.006Z,974.9
2018-12-23T05:23:01.448Z,975.1
2018-12-23T05:33:04.891Z,974.9
2018-12-23T05:43:08.302Z,967.6
2018-12-23T05:53:11.744Z,975.1
2018-12-23T06:03:15.296Z,967.9
2018-12-23T06:13:18.708Z,975.3
2018-12-23T06:23:22.108Z,968
2018-12-23T06:33:25.507Z,967.7
2018-12-23T06:43:28.940Z,967.8
2018-12-23T06:53:32.366Z,968.1
2018-12-23T07:03:35.776Z,968.2
2018-12-23T07:13:39.203Z,967.7
2018-12-23T07:23:42.701Z,968.1
2018-12-23T07:33:46.144Z,968
2018-12-23T07:43:49.578Z,968.3
2018-12-23T07:53:52.981Z,968.3
2018-12-23T08:03:56.406Z,968.3
2018-12-23T08:14:00.848Z,968.3
2018-12-23T08:24:04.238Z,968.1
2018-12-23T08:34:07.659Z,968.1
2018-12-23T08:44:11.073Z,968.1
2018-12-23T08:54:14.479Z,968.2
2018-12-23T09:04:17.897Z,968.3
2018-12-23T09:14:21.321Z,968.4
2018-12-23T09:24:24.728Z,968.2
2018-12-23T09:34:28.160Z,975.7
2018-12-23T09:44:31.602Z,968.1
2018-12-23T09:54:35.006Z,975.4
2018-12-23T10:04:38.402Z,975
2018-12-23T10:14:41.804Z,974.5
2018-12-23T10:24:45.211Z,974.3
2018-12-23T10:34:48.617Z,974.2
2018-12-23T10:44:52.041Z,973.8
2018-12-23T10:54:55.465Z,974.2
2018-12-23T11:04:58.925Z,974
2018-12-23T11:15:02.355Z,973.8
2018-12-23T11:25:05.785Z,966.5
2018-12-23T11:35:09.220Z,973.9
2018-12-23T11:45:12.616Z,973.3
2018-12-23T11:55:16.032Z,973.2
2018-12-23T12:05:19.503Z,973.3
2018-12-23T12:15:22.916Z,973.3
2018-12-23T12:25:26.350Z,965.9
2018-12-23T12:35:29.758Z,965.5
2018-12-23T12:45:33.163Z,965.1
2018-12-23T12:55:36.587Z,964.8
2018-12-23T13:05:40.017Z,964.8
2018-12-23T13:15:43.427Z,964.5
2018-12-23T13:25:47.871Z,964.4
2018-12-23T13:35:51.267Z,964.2
2018-12-23T13:45:54.665Z,964.5
2018-12-23T13:55:58.115Z,964.3
2018-12-23T14:06:01.519Z,964
2018-12-23T14:16:04.946Z,963.9
2018-12-23T14:26:08.349Z,963.9
2018-12-23T14:36:11.737Z,963.7
2018-12-23T14:46:15.143Z,963.5
2018-12-23T14:56:18.563Z,963.5
2018-12-23T15:06:21.988Z,963.1
2018-12-23T15:16:25.409Z,963.1
2018-12-23T15:26:28.859Z,963.1
2018-12-23T15:36:32.275Z,962.8
2018-12-23T15:46:35.688Z,962.9
2018-12-23T15:56:39.115Z,962.8
2018-12-23T16:06:42.491Z,962.8
2018-12-23T16:16:45.928Z,962.5
2018-12-23T16:26:49.354Z,962.5
2018-12-23T16:36:52.798Z,962.4
2018-12-23T16:46:56.229Z,962.4
2018-12-23T16:56:59.678Z,962.5
2018-12-23T17:07:03.068Z,962.4
2018-12-23T17:17:06.501Z,962.5
2018-12-23T17:27:09.909Z,962.4
2018-12-23T17:37:13.393Z,962.2
2018-12-23T17:47:16.795Z,962.4
2018-12-23T17:57:20.226Z,962.2
2018-12-23T18:07:23.675Z,962.1
2018-12-23T18:17:27.177Z,969.6
2018-12-23T18:27:30.655Z,962.1
2018-12-23T18:37:34.120Z,969.5
2018-12-23T18:47:37.533Z,969.4
2018-12-23T18:57:40.973Z,969.3
2018-12-23T19:07:44.381Z,961.7
2018-12-23T19:17:47.812Z,969.1
2018-12-23T19:27:51.219Z,969.1
2018-12-23T19:37:54.652Z,969
2018-12-23T19:47:58.040Z,969.2
2018-12-23T19:58:01.451Z,969
2018-12-23T20:08:04.871Z,968.9
2018-12-23T20:18:08.280Z,969.1
2018-12-23T20:28:11.703Z,969
2018-12-23T20:38:15.215Z,968.7
2018-12-23T20:48:18.624Z,968.6
2018-12-23T20:58:22.079Z,968.3
2018-12-23T21:08:25.492Z,968.1
2018-12-23T21:18:28.902Z,968.4
2018-12-23T21:38:40.507Z,968.1
2018-12-23T21:48:43.907Z,968.1
2018-12-23T21:58:47.330Z,968.2
2018-12-23T22:08:50.761Z,968.1
2018-12-23T22:18:54.203Z,967.9
2018-12-23T22:28:57.610Z,967.8
2018-12-23T22:39:02.064Z,967.8
2018-12-23T22:49:05.467Z,968
2018-12-23T22:59:08.870Z,968
2018-12-23T23:09:12.275Z,968.2
2018-12-23T23:19:15.711Z,968
2018-12-23T23:29:19.166Z,968
2018-12-23T23:39:22.577Z,967.9
2018-12-23T23:49:25.986Z,967.9
2018-12-23T23:59:29.416Z,967.5
